createdAt,value
2023-05-03T00:00:24.099Z,9.38
2023-05-03T00:01:26.581Z,9.38
2023-05-03T00:02:28.917Z,9.37
2023-05-03T00:03:31.943Z,9.37
2023-05-03T00:04:34.872Z,9.37
2023-05-03T00:05:38.203Z,9.36
2023-05-03T00:06:40.611Z,9.36
2023-05-03T00:07:44.296Z,9.35
2023-05-03T00:08:47.042Z,9.35
2023-05-03T00:09:50.306Z,9.35
2023-05-03T00:11:00.112Z,9.33
2023-05-03T00:12:02.760Z,9.32
2023-05-03T00:13:05.018Z,9.32
2023-05-03T00:14:07.258Z,9.32
2023-05-03T00:15:10.478Z,9.32
2023-05-03T00:16:13.208Z,9.31
2023-05-03T00:17:15.579Z,9.31
2023-05-03T00:18:18.101Z,9.30
2023-05-03T00:19:30.476Z,9.30
2023-05-03T00:20:33.611Z,9.29
2023-05-03T00:21:36.082Z,9.27
2023-05-03T00:22:38.560Z,9.27
2023-05-03T00:23:40.909Z,9.26
2023-05-03T00:24:43.471Z,9.25
2023-05-03T00:25:45.925Z,9.24
2023-05-03T00:26:48.150Z,9.25
2023-05-03T00:27:50.550Z,9.24
2023-05-03T00:28:52.818Z,9.24
2023-05-03T00:29:56.339Z,9.23
2023-05-03T00:31:08.332Z,9.21
2023-05-03T00:32:11.287Z,9.23
2023-05-03T00:33:13.545Z,9.20
2023-05-03T00:34:16.118Z,9.20
2023-05-03T00:35:18.441Z,9.19
2023-05-03T00:36:20.810Z,9.19
2023-05-03T00:37:24.213Z,9.18
2023-05-03T00:38:26.554Z,9.17
2023-05-03T00:39:32.019Z,9.17
2023-05-03T00:40:34.365Z,9.16
2023-05-03T00:41:36.743Z,9.15
2023-05-03T00:42:39.132Z,9.14
2023-05-03T00:43:41.460Z,9.14
2023-05-03T00:44:44.624Z,9.13
2023-05-03T00:45:47.805Z,9.13
2023-05-03T00:46:50.825Z,9.12
2023-05-03T00:47:53.384Z,9.11
2023-05-03T00:48:55.933Z,9.10
2023-05-03T00:49:59.585Z,9.10
2023-05-03T00:51:03.564Z,9.09
2023-05-03T00:52:06.817Z,9.08
2023-05-03T00:53:09.178Z,9.08
2023-05-03T00:54:11.947Z,9.07
2023-05-03T00:55:15.704Z,9.06
2023-05-03T00:56:25.926Z,9.06
2023-05-03T00:57:30.733Z,9.04
2023-05-03T00:58:35.234Z,9.05
2023-05-03T00:59:38.208Z,9.03
2023-05-03T01:00:40.925Z,9.03
2023-05-03T01:01:43.249Z,9.01
2023-05-03T01:02:45.658Z,9.02
2023-05-03T01:03:48.650Z,9.01
2023-05-03T01:04:52.690Z,9.00
2023-05-03T01:06:08.616Z,8.99
2023-05-03T01:07:41.258Z,9.00
2023-05-03T01:09:00.636Z,8.97
2023-05-03T01:10:21.835Z,8.97
2023-05-03T01:11:32.058Z,8.95
2023-05-03T01:12:46.835Z,8.94
2023-05-03T01:14:08.954Z,8.92
2023-05-03T01:15:25.972Z,8.91
2023-05-03T01:16:42.897Z,8.91
2023-05-03T01:18:05.581Z,8.89
2023-05-03T01:19:21.302Z,8.88
2023-05-03T01:20:25.520Z,8.86
2023-05-03T01:21:29.374Z,8.86
2023-05-03T01:22:58.137Z,8.85
2023-05-03T01:24:09.126Z,8.84
2023-05-03T01:25:13.255Z,8.84
2023-05-03T01:26:18.255Z,8.82
2023-05-03T01:27:20.892Z,8.81
2023-05-03T01:28:23.174Z,8.80
2023-05-03T01:29:25.393Z,8.79
2023-05-03T01:30:29.212Z,8.80
2023-05-03T01:31:43.906Z,8.79
2023-05-03T01:32:46.188Z,8.79
2023-05-03T01:34:05.151Z,8.78
2023-05-03T01:35:23.780Z,8.77
2023-05-03T01:36:32.754Z,8.77
2023-05-03T01:37:36.451Z,8.76
2023-05-03T01:38:39.387Z,8.74
2023-05-03T01:39:46.301Z,8.74
2023-05-03T01:40:52.305Z,8.72
2023-05-03T01:41:57.317Z,8.71
2023-05-03T01:42:59.883Z,8.69
2023-05-03T01:44:03.726Z,8.70
2023-05-03T01:45:06.496Z,8.69
2023-05-03T01:46:08.825Z,8.67
2023-05-03T01:47:11.388Z,8.66
2023-05-03T01:48:17.087Z,8.66
2023-05-03T01:49:19.323Z,8.65
2023-05-03T01:50:21.603Z,8.64
2023-05-03T01:51:25.109Z,8.64
2023-05-03T01:52:27.700Z,8.62
2023-05-03T01:53:30.056Z,8.61
2023-05-03T01:54:32.730Z,8.60
2023-05-03T01:55:35.060Z,8.60
2023-05-03T01:56:37.434Z,8.60
2023-05-03T01:57:39.679Z,8.58
2023-05-03T01:58:44.686Z,8.57
2023-05-03T01:59:46.923Z,8.57
2023-05-03T02:00:49.567Z,8.55
2023-05-03T02:01:51.912Z,8.53
2023-05-03T02:02:55.304Z,8.54
2023-05-03T02:03:57.734Z,8.53
2023-05-03T02:05:00.324Z,8.52
2023-05-03T02:06:02.950Z,8.51
2023-05-03T02:07:05.289Z,8.50
2023-05-03T02:08:07.740Z,8.49
2023-05-03T02:09:10.870Z,8.50
2023-05-03T02:10:15.061Z,8.48
2023-05-03T02:11:17.388Z,8.47
2023-05-03T02:12:20.889Z,8.47
2023-05-03T02:13:23.215Z,8.47
2023-05-03T02:14:25.997Z,8.45
2023-05-03T02:15:28.376Z,8.45
2023-05-03T02:16:32.252Z,8.44
2023-05-03T02:17:35.462Z,8.43
2023-05-03T02:18:37.857Z,8.42
2023-05-03T02:19:41.204Z,8.42
2023-05-03T02:20:46.838Z,8.41
2023-05-03T02:21:49.157Z,8.40
2023-05-03T02:22:51.450Z,8.38
2023-05-03T02:23:54.814Z,8.38
2023-05-03T02:24:58.905Z,8.37
2023-05-03T02:26:01.239Z,8.35
2023-05-03T02:27:08.244Z,8.35
2023-05-03T02:28:10.614Z,8.34
2023-05-03T02:29:12.955Z,8.33
2023-05-03T02:30:15.289Z,8.33
2023-05-03T02:31:19.289Z,8.30
2023-05-03T02:32:24.306Z,8.28
2023-05-03T02:33:26.666Z,8.27
2023-05-03T02:34:29.062Z,8.27
2023-05-03T02:35:31.369Z,8.25
2023-05-03T02:36:33.627Z,8.25
2023-05-03T02:37:37.285Z,8.23
2023-05-03T02:38:44.393Z,8.22
2023-05-03T02:39:47.464Z,8.21
2023-05-03T02:40:51.265Z,8.21
2023-05-03T02:41:53.536Z,8.19
2023-05-03T02:42:55.998Z,8.19
2023-05-03T02:44:02.654Z,8.18
2023-05-03T02:45:05.983Z,8.15
2023-05-03T02:46:08.299Z,8.16
2023-05-03T02:47:11.377Z,8.14
2023-05-03T02:48:16.774Z,8.13
2023-05-03T02:49:19.066Z,8.12
2023-05-03T02:50:22.573Z,8.11
2023-05-03T02:51:24.850Z,8.11
2023-05-03T02:52:27.159Z,8.11
2023-05-03T02:53:29.877Z,8.09
2023-05-03T02:54:36.090Z,8.08
2023-05-03T02:55:44.207Z,8.07
2023-05-03T02:56:46.420Z,8.06
2023-05-03T02:57:50.218Z,8.05
2023-05-03T02:58:55.795Z,8.03
2023-05-03T02:59:58.970Z,8.03
2023-05-03T03:01:01.903Z,8.02
2023-05-03T03:02:06.000Z,8.02
2023-05-03T03:03:09.782Z,8.01
2023-05-03T03:04:12.260Z,8.00
2023-05-03T03:05:14.587Z,7.96
2023-05-03T03:06:22.708Z,7.98
2023-05-03T03:07:25.093Z,7.97
2023-05-03T03:08:31.175Z,7.94
2023-05-03T03:09:37.213Z,7.94
2023-05-03T03:10:39.586Z,7.93
2023-05-03T03:11:42.051Z,7.91
2023-05-03T03:12:44.753Z,7.91
2023-05-03T03:13:56.532Z,7.90
2023-05-03T03:15:01.125Z,7.90
2023-05-03T03:16:07.780Z,7.88
2023-05-03T03:17:11.477Z,7.87
2023-05-03T03:18:14.469Z,7.86
2023-05-03T03:19:16.839Z,7.86
2023-05-03T03:20:19.237Z,7.85
2023-05-03T03:21:23.588Z,7.85
2023-05-03T03:22:25.917Z,7.84
2023-05-03T03:23:28.206Z,7.83
2023-05-03T03:24:31.138Z,7.82
2023-05-03T03:25:33.688Z,7.82
2023-05-03T03:26:36.010Z,7.81
2023-05-03T03:27:39.761Z,7.80
2023-05-03T03:28:42.440Z,7.80
2023-05-03T03:29:46.933Z,7.79
2023-05-03T03:30:49.857Z,7.79
2023-05-03T03:31:59.198Z,7.78
2023-05-03T03:33:01.661Z,7.78
2023-05-03T03:34:13.091Z,7.76
2023-05-03T03:35:15.616Z,7.75
2023-05-03T03:36:18.134Z,7.75
2023-05-03T03:37:25.497Z,7.73
2023-05-03T03:38:28.116Z,7.75
2023-05-03T03:39:36.935Z,7.72
2023-05-03T03:40:39.305Z,7.72
2023-05-03T03:41:41.698Z,7.72
2023-05-03T03:42:44.028Z,7.70
2023-05-03T03:43:46.364Z,7.71
2023-05-03T03:44:53.061Z,7.69
2023-05-03T03:45:55.352Z,7.69
2023-05-03T03:46:58.189Z,7.68
2023-05-03T03:48:00.554Z,7.67
2023-05-03T03:49:03.134Z,7.67
2023-05-03T03:50:07.083Z,7.66
2023-05-03T03:51:11.596Z,7.66
2023-05-03T03:52:19.830Z,7.65
2023-05-03T03:53:22.119Z,7.64
2023-05-03T03:54:25.317Z,7.64
2023-05-03T03:55:27.949Z,7.64
2023-05-03T03:56:30.917Z,7.63
2023-05-03T03:57:33.384Z,7.62
2023-05-03T03:58:36.159Z,7.62
2023-05-03T03:59:41.214Z,7.61
2023-05-03T04:00:43.861Z,7.60
2023-05-03T04:01:50.828Z,7.59
2023-05-03T04:02:53.280Z,7.59
2023-05-03T04:03:56.467Z,7.58
2023-05-03T04:04:58.882Z,7.58
2023-05-03T04:06:01.296Z,7.57
2023-05-03T04:07:04.857Z,7.58
2023-05-03T04:08:07.195Z,7.56
2023-05-03T04:09:11.370Z,7.56
2023-05-03T04:10:14.170Z,7.55
2023-05-03T04:11:16.800Z,7.56
2023-05-03T04:12:24.820Z,7.55
2023-05-03T04:13:27.184Z,7.54
2023-05-03T04:14:31.298Z,7.54
2023-05-03T04:15:33.699Z,7.55
2023-05-03T04:16:38.228Z,7.54
2023-05-03T04:17:41.966Z,7.55
2023-05-03T04:18:46.094Z,7.54
2023-05-03T04:19:49.064Z,7.53
2023-05-03T04:20:51.937Z,7.53
2023-05-03T04:21:54.249Z,7.52
2023-05-03T04:22:56.944Z,7.52
2023-05-03T04:24:06.219Z,7.53
2023-05-03T04:25:14.368Z,7.52
2023-05-03T04:26:31.163Z,7.52
2023-05-03T04:27:40.294Z,7.53
2023-05-03T04:28:43.190Z,7.53
2023-05-03T04:29:46.145Z,7.53
2023-05-03T04:30:48.547Z,7.53
2023-05-03T04:31:56.298Z,7.53
2023-05-03T04:32:59.755Z,7.54
2023-05-03T04:34:03.746Z,7.55
2023-05-03T04:35:10.791Z,7.53
2023-05-03T04:36:17.417Z,7.55
2023-05-03T04:37:23.668Z,7.55
2023-05-03T04:38:26.219Z,7.56
2023-05-03T04:39:28.717Z,7.55
2023-05-03T04:40:31.559Z,7.56
2023-05-03T04:41:43.389Z,7.57
2023-05-03T04:42:48.016Z,7.58
2023-05-03T04:43:50.776Z,7.58
2023-05-03T04:44:53.190Z,7.58
2023-05-03T04:45:57.198Z,7.59
2023-05-03T04:47:02.972Z,7.58
2023-05-03T04:48:05.787Z,7.59
2023-05-03T04:49:08.823Z,7.59
2023-05-03T04:50:11.458Z,7.59
2023-05-03T04:51:17.048Z,7.61
2023-05-03T04:52:21.557Z,7.61
2023-05-03T04:53:24.127Z,7.62
2023-05-03T04:54:38.877Z,7.62
2023-05-03T04:55:42.167Z,7.63
2023-05-03T04:56:45.026Z,7.63
2023-05-03T04:57:52.235Z,7.63
2023-05-03T04:58:54.455Z,7.63
2023-05-03T04:59:57.296Z,7.65
2023-05-03T05:00:59.587Z,7.65
2023-05-03T05:02:05.066Z,7.67
2023-05-03T05:03:08.215Z,7.68
2023-05-03T05:04:10.697Z,7.68
2023-05-03T05:05:19.662Z,7.67
2023-05-03T05:06:23.274Z,7.68
2023-05-03T05:07:25.751Z,7.68
2023-05-03T05:08:28.101Z,7.69
2023-05-03T05:09:32.328Z,7.69
2023-05-03T05:10:43.853Z,7.70
2023-05-03T05:11:50.848Z,7.71
2023-05-03T05:12:53.861Z,7.71
2023-05-03T05:13:56.713Z,7.73
2023-05-03T05:14:59.240Z,7.75
2023-05-03T05:16:01.785Z,7.76
2023-05-03T05:17:04.078Z,7.76
2023-05-03T05:18:06.644Z,7.77
2023-05-03T05:19:13.375Z,7.79
2023-05-03T05:20:17.068Z,7.80
2023-05-03T05:21:23.865Z,7.81
2023-05-03T05:22:26.375Z,7.82
2023-05-03T05:23:33.089Z,7.83
2023-05-03T05:24:35.706Z,7.84
2023-05-03T05:25:38.016Z,7.85
2023-05-03T05:26:42.410Z,7.86
2023-05-03T05:27:45.675Z,7.87
2023-05-03T05:28:48.810Z,7.88
2023-05-03T05:29:51.117Z,7.90
2023-05-03T05:30:53.729Z,7.91
2023-05-03T05:31:56.551Z,7.93
2023-05-03T05:32:59.178Z,7.94
2023-05-03T05:34:01.629Z,7.95
2023-05-03T05:35:04.207Z,7.98
2023-05-03T05:36:06.783Z,7.99
2023-05-03T05:37:10.558Z,8.00
2023-05-03T05:38:13.518Z,8.02
2023-05-03T05:39:15.872Z,8.05
2023-05-03T05:40:19.210Z,8.08
2023-05-03T05:41:27.150Z,8.10
2023-05-03T05:42:29.630Z,8.12
2023-05-03T05:43:32.224Z,8.13
2023-05-03T05:44:35.024Z,8.16
2023-05-03T05:45:38.414Z,8.17
2023-05-03T05:46:41.649Z,8.20
2023-05-03T05:47:44.623Z,8.22
2023-05-03T05:48:47.295Z,8.25
2023-05-03T05:49:49.712Z,8.29
2023-05-03T05:50:52.148Z,8.31
2023-05-03T05:51:54.414Z,8.34
2023-05-03T05:52:56.822Z,8.37
2023-05-03T05:54:02.500Z,8.39
2023-05-03T05:55:05.124Z,8.43
2023-05-03T05:56:08.901Z,8.46
2023-05-03T05:57:12.697Z,8.49
2023-05-03T05:58:15.248Z,8.53
2023-05-03T05:59:23.143Z,8.56
2023-05-03T06:00:26.352Z,8.59
2023-05-03T06:01:28.711Z,8.63
2023-05-03T06:02:31.418Z,8.66
2023-05-03T06:03:34.546Z,8.69
2023-05-03T06:04:39.242Z,8.74
2023-05-03T06:05:42.417Z,8.79
2023-05-03T06:06:45.724Z,8.81
2023-05-03T06:07:50.462Z,8.86
2023-05-03T06:08:53.380Z,8.88
2023-05-03T06:09:56.860Z,8.92
2023-05-03T06:10:59.208Z,8.96
2023-05-03T06:12:03.228Z,9.00
2023-05-03T06:13:07.465Z,9.04
2023-05-03T06:14:10.956Z,9.07
2023-05-03T06:15:15.413Z,9.12
2023-05-03T06:16:18.275Z,9.17
2023-05-03T06:17:23.431Z,9.21
2023-05-03T06:18:25.694Z,9.25
2023-05-03T06:19:28.749Z,9.31
2023-05-03T06:20:31.006Z,9.35
2023-05-03T06:21:34.596Z,9.39
2023-05-03T06:22:36.931Z,9.44
2023-05-03T06:23:41.409Z,9.50
2023-05-03T06:24:44.708Z,9.54
2023-05-03T06:25:49.220Z,9.60
2023-05-03T06:26:53.611Z,9.66
2023-05-03T06:27:56.264Z,9.72
2023-05-03T06:29:03.411Z,9.78
2023-05-03T06:30:06.704Z,9.85
2023-05-03T06:31:09.265Z,9.94
2023-05-03T06:32:12.286Z,10.04
2023-05-03T06:33:15.169Z,10.12
2023-05-03T06:34:21.853Z,10.23
2023-05-03T06:35:25.820Z,10.34
2023-05-03T06:36:31.774Z,10.48
2023-05-03T06:37:34.262Z,10.59
2023-05-03T06:38:36.844Z,10.73
2023-05-03T06:39:39.880Z,10.87
2023-05-03T06:40:42.198Z,11.01
2023-05-03T06:41:44.920Z,11.15
2023-05-03T06:42:47.305Z,11.29
2023-05-03T06:44:13.076Z,11.47
2023-05-03T06:45:15.630Z,11.61
2023-05-03T06:46:25.317Z,11.78
2023-05-03T06:47:27.599Z,11.96
2023-05-03T06:48:30.013Z,12.12
2023-05-03T06:49:32.862Z,12.29
2023-05-03T06:50:36.631Z,12.45
2023-05-03T06:51:38.923Z,12.62
2023-05-03T06:52:41.600Z,12.80
2023-05-03T06:53:43.905Z,12.96
2023-05-03T06:54:46.487Z,13.12
2023-05-03T06:55:48.860Z,13.29
2023-05-03T06:56:52.140Z,13.45
2023-05-03T06:57:55.049Z,13.64
2023-05-03T06:58:57.269Z,13.80
2023-05-03T06:59:59.831Z,13.97
2023-05-03T07:01:02.192Z,14.13
2023-05-03T07:02:04.551Z,14.30
2023-05-03T07:03:07.281Z,14.46
2023-05-03T07:04:09.889Z,14.63
2023-05-03T07:05:12.270Z,14.79
2023-05-03T07:06:15.582Z,14.95
2023-05-03T07:07:18.005Z,15.10
2023-05-03T07:08:20.526Z,15.26
2023-05-03T07:09:35.298Z,15.42
2023-05-03T07:10:44.336Z,15.60
2023-05-03T07:11:50.552Z,15.75
2023-05-03T07:12:52.864Z,15.91
2023-05-03T07:13:56.279Z,16.06
2023-05-03T07:14:58.887Z,16.20
2023-05-03T07:16:03.402Z,16.34
2023-05-03T07:17:06.178Z,16.49
2023-05-03T07:18:09.227Z,16.62
2023-05-03T07:19:11.660Z,16.74
2023-05-03T07:20:14.488Z,16.84
2023-05-03T07:21:16.879Z,16.96
2023-05-03T07:22:25.001Z,17.07
2023-05-03T07:23:27.333Z,17.17
2023-05-03T07:24:29.957Z,17.27
2023-05-03T07:25:35.803Z,17.37
2023-05-03T07:26:38.494Z,17.45
2023-05-03T07:27:41.023Z,17.57
2023-05-03T07:28:43.348Z,17.66
2023-05-03T07:29:45.695Z,17.77
2023-05-03T07:30:48.315Z,17.87
2023-05-03T07:31:52.771Z,17.95
2023-05-03T07:32:55.913Z,18.05
2023-05-03T07:33:58.421Z,18.13
2023-05-03T07:35:00.787Z,18.23
2023-05-03T07:36:04.439Z,18.33
2023-05-03T07:37:06.836Z,18.42
2023-05-03T07:38:09.330Z,18.52
2023-05-03T07:39:12.069Z,18.61
2023-05-03T07:40:14.620Z,18.69
2023-05-03T07:41:17.037Z,18.76
2023-05-03T07:42:19.579Z,18.87
2023-05-03T07:43:23.816Z,18.95
2023-05-03T07:44:26.113Z,19.03
2023-05-03T07:45:31.249Z,19.09
2023-05-03T07:46:35.538Z,19.18
2023-05-03T07:47:40.157Z,19.26
2023-05-03T07:48:42.528Z,19.35
2023-05-03T07:49:45.391Z,19.40
2023-05-03T07:50:50.748Z,19.47
2023-05-03T07:51:53.047Z,19.53
2023-05-03T07:52:56.672Z,19.60
2023-05-03T07:53:58.965Z,19.67
2023-05-03T07:55:02.222Z,19.72
2023-05-03T07:56:04.716Z,19.81
2023-05-03T07:57:08.039Z,19.89
2023-05-03T07:58:10.420Z,19.97
2023-05-03T07:59:12.691Z,20.04
2023-05-03T08:00:16.273Z,20.10
2023-05-03T08:01:18.526Z,20.17
2023-05-03T08:02:21.299Z,20.23
2023-05-03T08:03:24.281Z,20.31
2023-05-03T08:04:26.862Z,20.35
2023-05-03T08:05:29.605Z,20.39
2023-05-03T08:06:32.852Z,20.42
2023-05-03T08:07:35.406Z,20.48
2023-05-03T08:08:38.506Z,20.51
2023-05-03T08:09:41.749Z,20.57
2023-05-03T08:10:44.410Z,20.62
2023-05-03T08:11:47.184Z,20.64
2023-05-03T08:12:49.517Z,20.66
2023-05-03T08:13:51.880Z,20.68
2023-05-03T08:14:55.511Z,20.70
2023-05-03T08:15:57.921Z,20.72
2023-05-03T08:17:01.172Z,20.73
2023-05-03T08:18:03.552Z,20.74
2023-05-03T08:19:06.165Z,20.74
2023-05-03T08:20:09.520Z,20.78
2023-05-03T08:21:12.638Z,20.80
2023-05-03T08:22:17.554Z,20.84
2023-05-03T08:23:22.617Z,20.87
2023-05-03T08:24:24.992Z,20.91
2023-05-03T08:25:28.654Z,20.94
2023-05-03T08:26:31.286Z,20.98
2023-05-03T08:27:34.625Z,21.02
2023-05-03T08:28:37.134Z,21.05
2023-05-03T08:29:39.460Z,21.08
2023-05-03T08:30:42.126Z,21.12
2023-05-03T08:31:44.709Z,21.15
2023-05-03T08:32:48.904Z,21.18
2023-05-03T08:33:51.952Z,21.22
2023-05-03T08:34:56.068Z,21.25
2023-05-03T08:35:58.393Z,21.28
2023-05-03T08:37:00.646Z,21.31
2023-05-03T08:38:03.065Z,21.36
2023-05-03T08:39:08.246Z,21.37
2023-05-03T08:40:14.888Z,21.42
2023-05-03T08:41:27.748Z,21.47
2023-05-03T08:42:33.309Z,21.50
2023-05-03T08:43:40.588Z,21.51
2023-05-03T08:44:48.323Z,21.49
2023-05-03T08:45:51.696Z,21.44
2023-05-03T08:46:54.058Z,21.39
2023-05-03T08:47:56.546Z,21.34
2023-05-03T08:48:59.878Z,21.28
2023-05-03T08:50:05.131Z,21.14
2023-05-03T08:51:10.184Z,21.02
2023-05-03T08:52:14.959Z,20.93
2023-05-03T08:53:17.356Z,20.85
2023-05-03T08:54:21.505Z,20.78
2023-05-03T08:55:23.763Z,20.74
2023-05-03T08:56:30.552Z,20.66
2023-05-03T08:57:34.960Z,20.63
2023-05-03T08:58:37.869Z,20.63
2023-05-03T08:59:50.057Z,20.61
2023-05-03T09:00:52.396Z,20.61
2023-05-03T09:01:55.198Z,20.62
2023-05-03T09:02:58.773Z,20.63
2023-05-03T09:04:01.125Z,20.65
2023-05-03T09:05:07.704Z,20.67
2023-05-03T09:06:23.316Z,20.71
2023-05-03T09:07:25.700Z,20.74
2023-05-03T09:08:29.065Z,20.78
2023-05-03T09:09:32.538Z,20.80
2023-05-03T09:10:40.596Z,20.82
2023-05-03T09:11:42.921Z,20.81
2023-05-03T09:12:46.070Z,20.77
2023-05-03T09:13:48.643Z,20.75
2023-05-03T09:14:50.957Z,20.72
2023-05-03T09:15:57.440Z,20.71
2023-05-03T09:17:16.736Z,20.73
2023-05-03T09:18:20.286Z,20.72
2023-05-03T09:19:24.530Z,20.73
2023-05-03T09:20:37.192Z,20.74
2023-05-03T09:21:41.743Z,20.72
2023-05-03T09:22:51.986Z,20.71
2023-05-03T09:23:54.365Z,20.70
2023-05-03T09:24:59.222Z,20.69
2023-05-03T09:26:01.953Z,20.67
2023-05-03T09:27:18.749Z,20.63
2023-05-03T09:28:21.969Z,20.53
2023-05-03T09:29:32.076Z,20.47
2023-05-03T09:30:34.364Z,20.38
2023-05-03T09:31:37.721Z,20.32
2023-05-03T09:32:48.869Z,20.28
2023-05-03T09:33:52.041Z,20.25
2023-05-03T09:35:10.469Z,20.25
2023-05-03T09:36:12.814Z,20.22
2023-05-03T09:37:15.134Z,20.19
2023-05-03T09:38:27.394Z,20.19
2023-05-03T09:39:29.901Z,20.18
2023-05-03T09:40:32.309Z,20.18
2023-05-03T09:41:34.581Z,20.17
2023-05-03T09:42:36.866Z,20.16
2023-05-03T09:43:52.588Z,20.16
2023-05-03T09:44:55.730Z,20.16
2023-05-03T09:46:12.503Z,20.18
2023-05-03T09:47:15.506Z,20.19
2023-05-03T09:48:19.094Z,20.19
2023-05-03T09:49:21.401Z,20.22
2023-05-03T09:50:24.736Z,20.24
2023-05-03T09:51:28.300Z,20.26
2023-05-03T09:52:30.846Z,20.29
2023-05-03T09:53:34.456Z,20.31
2023-05-03T09:54:38.563Z,20.33
2023-05-03T09:55:42.017Z,20.34
2023-05-03T09:56:47.450Z,20.36
2023-05-03T09:57:51.087Z,20.36
2023-05-03T09:58:54.791Z,20.35
2023-05-03T09:59:58.266Z,20.33
2023-05-03T10:01:01.018Z,20.32
2023-05-03T10:02:06.160Z,20.31
2023-05-03T10:03:13.174Z,20.30
2023-05-03T10:04:20.673Z,20.31
2023-05-03T10:05:25.063Z,20.30
2023-05-03T10:06:41.136Z,20.32
2023-05-03T10:07:44.596Z,20.32
2023-05-03T10:08:52.650Z,20.34
2023-05-03T10:09:57.358Z,20.34
2023-05-03T10:11:00.249Z,20.34
2023-05-03T10:12:08.356Z,20.36
2023-05-03T10:13:14.073Z,20.35
2023-05-03T10:14:16.667Z,20.35
2023-05-03T10:15:22.414Z,20.37
2023-05-03T10:16:31.338Z,20.37
2023-05-03T10:17:47.929Z,20.38
2023-05-03T10:18:56.765Z,20.37
2023-05-03T10:20:29.991Z,20.39
2023-05-03T10:21:58.301Z,20.39
2023-05-03T10:23:06.655Z,20.37
2023-05-03T10:24:16.593Z,20.36
2023-05-03T10:25:19.028Z,20.36
2023-05-03T10:26:22.715Z,20.35
2023-05-03T10:27:25.134Z,20.37
2023-05-03T10:28:27.467Z,20.38
2023-05-03T10:29:46.259Z,20.39
2023-05-03T10:30:48.552Z,20.39
2023-05-03T10:31:50.879Z,20.40
2023-05-03T10:32:53.315Z,20.36
2023-05-03T10:33:55.588Z,20.38
2023-05-03T10:35:15.535Z,20.39
2023-05-03T10:36:18.066Z,20.37
2023-05-03T10:37:27.401Z,20.32
2023-05-03T10:38:29.935Z,20.25
2023-05-03T10:39:32.431Z,20.18
2023-05-03T10:40:43.354Z,20.13
2023-05-03T10:41:46.225Z,20.07
2023-05-03T10:42:56.498Z,20.01
2023-05-03T10:43:58.759Z,19.91
2023-05-03T10:45:03.876Z,19.86
2023-05-03T10:46:09.205Z,19.80
2023-05-03T10:47:15.114Z,19.76
2023-05-03T10:48:20.877Z,19.69
2023-05-03T10:49:26.629Z,19.64
2023-05-03T10:50:29.033Z,19.60
2023-05-03T10:51:37.528Z,19.51
2023-05-03T10:52:40.559Z,19.45
2023-05-03T10:53:45.038Z,19.38
2023-05-03T10:54:47.770Z,19.32
2023-05-03T10:56:08.361Z,19.24
2023-05-03T10:57:13.897Z,19.16
2023-05-03T10:58:17.265Z,19.13
2023-05-03T10:59:21.594Z,19.08
2023-05-03T11:00:33.089Z,19.04
2023-05-03T11:01:36.600Z,18.98
2023-05-03T11:02:53.784Z,18.99
2023-05-03T11:04:14.250Z,18.96
2023-05-03T11:05:18.866Z,18.93
2023-05-03T11:06:29.611Z,18.91
2023-05-03T11:07:32.059Z,18.87
2023-05-03T11:08:38.202Z,18.84
2023-05-03T11:09:40.639Z,18.82
2023-05-03T11:10:44.393Z,18.79
2023-05-03T11:11:46.676Z,18.77
2023-05-03T11:12:51.741Z,18.75
2023-05-03T11:13:54.762Z,18.74
2023-05-03T11:14:57.165Z,18.73
2023-05-03T11:15:59.439Z,18.69
2023-05-03T11:17:02.098Z,18.70
2023-05-03T11:18:07.552Z,18.70
2023-05-03T11:19:10.940Z,18.68
2023-05-03T11:20:13.595Z,18.67
2023-05-03T11:21:16.761Z,18.64
2023-05-03T11:22:19.203Z,18.61
2023-05-03T11:23:28.965Z,18.60
2023-05-03T11:24:31.771Z,18.59
2023-05-03T11:25:34.868Z,18.56
2023-05-03T11:26:40.374Z,18.53
2023-05-03T11:27:42.966Z,18.51
2023-05-03T11:28:45.584Z,18.48
2023-05-03T11:29:51.247Z,18.47
2023-05-03T11:30:53.604Z,18.44
2023-05-03T11:31:56.429Z,18.42
2023-05-03T11:33:02.696Z,18.41
2023-05-03T11:34:06.757Z,18.40
2023-05-03T11:35:09.642Z,18.37
2023-05-03T11:36:13.983Z,18.37
2023-05-03T11:37:16.455Z,18.35
2023-05-03T11:38:18.930Z,18.34
2023-05-03T11:39:21.721Z,18.30
2023-05-03T11:40:24.366Z,18.28
2023-05-03T11:41:27.510Z,18.27
2023-05-03T11:42:30.135Z,18.23
2023-05-03T11:43:32.787Z,18.23
2023-05-03T11:44:36.066Z,18.20
2023-05-03T11:45:45.982Z,18.18
2023-05-03T11:46:50.067Z,18.15
2023-05-03T11:47:53.896Z,18.15
2023-05-03T11:48:57.285Z,18.12
2023-05-03T11:49:59.704Z,18.10
2023-05-03T11:51:08.057Z,18.10
2023-05-03T11:52:10.404Z,18.10
2023-05-03T11:53:16.503Z,18.08
2023-05-03T11:54:25.954Z,18.07
2023-05-03T11:55:30.729Z,18.04
2023-05-03T11:56:33.539Z,18.03
2023-05-03T11:57:37.013Z,18.02
2023-05-03T11:58:51.968Z,18.00
2023-05-03T11:59:54.713Z,17.95
2023-05-03T12:00:57.626Z,17.94
2023-05-03T12:02:02.972Z,17.94
2023-05-03T12:03:08.854Z,17.92
2023-05-03T12:04:13.094Z,17.90
2023-05-03T12:05:16.535Z,17.86
2023-05-03T12:06:19.360Z,17.85
2023-05-03T12:07:23.756Z,17.83
2023-05-03T12:08:35.441Z,17.79
2023-05-03T12:09:41.373Z,17.76
2023-05-03T12:10:45.639Z,17.72
2023-05-03T12:12:59.756Z,17.68
2023-05-03T12:14:03.544Z,17.66
2023-05-03T12:15:08.031Z,17.62
2023-05-03T12:16:14.660Z,17.61
2023-05-03T12:17:37.356Z,17.59
2023-05-03T12:18:53.446Z,17.56
2023-05-03T12:20:51.341Z,17.53
2023-05-03T12:21:54.120Z,17.49
2023-05-03T12:23:10.490Z,17.44
2023-05-03T12:24:20.113Z,17.41
2023-05-03T12:25:26.065Z,17.39
2023-05-03T12:26:29.922Z,17.35
2023-05-03T12:27:32.848Z,17.35
2023-05-03T12:28:35.504Z,17.31
2023-05-03T12:29:39.812Z,17.30
2023-05-03T12:30:46.316Z,17.30
2023-05-03T12:31:49.542Z,17.28
2023-05-03T12:32:52.129Z,17.27
2023-05-03T12:34:20.076Z,17.26
2023-05-03T12:35:19.699Z,17.24
2023-05-03T12:36:25.920Z,17.21
2023-05-03T12:37:33.265Z,17.19
2023-05-03T12:38:38.082Z,17.17
2023-05-03T12:39:46.175Z,17.15
2023-05-03T12:40:50.677Z,17.14
2023-05-03T12:42:06.777Z,17.13
2023-05-03T12:43:10.441Z,17.11
2023-05-03T12:44:16.517Z,17.10
2023-05-03T12:45:21.586Z,17.06
2023-05-03T12:46:34.876Z,17.07
2023-05-03T12:47:43.733Z,17.03
2023-05-03T12:48:47.045Z,17.03
2023-05-03T12:49:52.128Z,17.02
2023-05-03T12:51:13.077Z,17.00
2023-05-03T12:53:25.783Z,17.01
2023-05-03T12:54:33.346Z,17.01
2023-05-03T12:55:41.883Z,17.00
2023-05-03T12:56:48.094Z,16.99
2023-05-03T12:58:13.536Z,16.98
2023-05-03T12:59:34.191Z,16.97
2023-05-03T13:00:36.745Z,16.96
2023-05-03T13:02:38.346Z,16.99
2023-05-03T13:04:36.935Z,16.95
2023-05-03T13:05:35.336Z,16.92
2023-05-03T13:06:42.727Z,16.90
2023-05-03T13:07:55.661Z,16.87
2023-05-03T13:09:02.975Z,16.86
2023-05-03T13:11:11.589Z,16.83
2023-05-03T13:12:14.762Z,16.82
2023-05-03T13:13:17.500Z,16.82
2023-05-03T13:14:19.890Z,16.79
2023-05-03T13:15:25.306Z,16.77
2023-05-03T13:16:28.164Z,16.76
2023-05-03T13:17:31.475Z,16.74
2023-05-03T13:18:33.803Z,16.72
2023-05-03T13:19:37.006Z,16.70
2023-05-03T13:20:39.509Z,16.69
2023-05-03T13:21:43.441Z,16.67
2023-05-03T13:22:49.146Z,16.66
2023-05-03T13:23:51.638Z,16.66
2023-05-03T13:24:54.112Z,16.66
2023-05-03T13:25:57.505Z,16.65
2023-05-03T13:26:59.899Z,16.63
2023-05-03T13:28:02.271Z,16.62
2023-05-03T13:29:05.640Z,16.61
2023-05-03T13:30:09.020Z,16.62
2023-05-03T13:31:11.863Z,16.61
2023-05-03T13:32:14.195Z,16.57
2023-05-03T13:33:16.889Z,16.56
2023-05-03T13:34:19.588Z,16.55
2023-05-03T13:35:21.891Z,16.55
2023-05-03T13:36:24.521Z,16.54
2023-05-03T13:37:26.922Z,16.53
2023-05-03T13:38:29.224Z,16.51
2023-05-03T13:39:32.125Z,16.49
2023-05-03T13:40:37.458Z,16.46
2023-05-03T13:41:43.522Z,16.44
2023-05-03T13:42:46.473Z,16.41
2023-05-03T13:43:48.874Z,16.40
2023-05-03T13:44:51.392Z,16.39
2023-05-03T13:46:01.068Z,16.38
2023-05-03T13:47:03.671Z,16.36
2023-05-03T13:48:18.149Z,16.34
2023-05-03T13:49:21.527Z,16.33
2023-05-03T13:50:24.986Z,16.33
2023-05-03T13:51:28.759Z,16.31
2023-05-03T13:52:31.060Z,16.29
2023-05-03T13:53:33.370Z,16.27
2023-05-03T13:54:36.583Z,16.26
2023-05-03T13:55:38.944Z,16.25
2023-05-03T13:56:43.182Z,16.24
2023-05-03T13:57:47.111Z,16.23
2023-05-03T13:58:49.840Z,16.22
2023-05-03T13:59:52.613Z,16.21
2023-05-03T14:00:54.984Z,16.21
2023-05-03T14:01:59.506Z,16.20
2023-05-03T14:03:02.261Z,16.21
2023-05-03T14:04:05.401Z,16.19
2023-05-03T14:05:08.752Z,16.19
2023-05-03T14:06:11.262Z,16.19
2023-05-03T14:07:13.554Z,16.18
2023-05-03T14:08:16.860Z,16.19
2023-05-03T14:09:19.208Z,16.17
2023-05-03T14:10:21.529Z,16.18
2023-05-03T14:11:27.553Z,16.15
2023-05-03T14:12:29.908Z,16.16